Terminal Aerodrome Forecast
Issued by NWS Binghamton, NY

Home | Current Version | Previous Version | Text Only | Print | Product List | Glossary On
Versions: 1 2 3 4 5 6 7 8 9 10 11 12 13 14 15 16 17 18 19 20 21
396
FTUS41 KBGM 192331
TAFAVP
TAF
KAVP 192331Z 2000/2024 35004KT P6SM BKN025
     FM201300 VRB03KT P6SM BKN040
     FM201800 16005KT 3SM -RA OVC015
     FM202000 15005KT 2SM -RA OVC008=

USA.gov is the U.S. government's official web portal to all federal, state and local government web resources and services.